Time,TemperatureF,DewpointF,PressureIn,WindDirection,WindDirectionDegrees,WindSpeedMPH,WindSpeedGustMPH,Humidity,HourlyPrecipIn,Conditions,Clouds,dailyrainin,SolarRadiationWatts/m^2,SoftwareType,DateUTC
2013-07-26 00:02:00,56.0,49.0,-100.00,South,176,1.0,5.0,78,0.00,,,0.00,0.000000,,2013-07-26 07:02:00,
2013-07-26 00:32:00,54.0,48.0,-100.00,WNW,284,1.0,3.0,81,0.00,,,0.00,0.000000,,2013-07-26 07:32:00,
2013-07-26 00:43:00,54.0,48.0,-100.00,WNW,284,1.0,3.0,81,0.00,,,0.00,0.000000,,2013-07-26 07:43:00,
2013-07-26 00:53:00,54.0,48.0,-100.00,WNW,284,1.0,3.0,81,0.00,,,0.00,0.000000,,2013-07-26 07:53:00,
2013-07-26 01:02:00,54.0,48.0,-100.00,WNW,284,1.0,3.0,81,0.00,,,0.00,0.000000,,2013-07-26 08:02:00,
2013-07-26 01:32:00,52.0,48.0,-100.00,East,89,1.0,4.0,85,0.00,,,0.00,0.000000,,2013-07-26 08:32:00,
2013-07-26 01:44:00,52.0,48.0,-100.00,East,89,1.0,4.0,85,0.00,,,0.00,0.000000,,2013-07-26 08:44:00,
2013-07-26 02:32:00,49.0,46.0,-100.00,ENE,73,1.0,5.0,89,0.00,,,-99.99,0.000000,,2013-07-26 09:32:00,
2013-07-26 02:43:00,49.0,46.0,-100.00,ENE,73,1.0,5.0,89,0.00,,,-99.99,0.000000,,2013-07-26 09:43:00,
2013-07-26 02:52:00,49.0,46.0,-100.00,ENE,73,1.0,5.0,89,0.00,,,-99.99,0.000000,,2013-07-26 09:52:00,
2013-07-26 03:02:00,49.0,46.0,-100.00,ENE,73,1.0,5.0,89,0.00,,,-99.99,0.000000,,2013-07-26 10:02:00,
2013-07-26 03:33:00,49.0,46.0,-100.00,SSW,194,1.0,5.0,90,-99.99,,,0.00,0.000000,,2013-07-26 10:33:00,
2013-07-26 03:42:00,49.0,46.0,-100.00,SSW,194,1.0,5.0,90,-99.99,,,0.00,0.000000,,2013-07-26 10:42:00,
2013-07-26 04:32:00,46.0,44.0,-100.00,ENE,66,1.0,5.0,92,0.00,,,0.00,0.000000,,2013-07-26 11:32:00,
2013-07-26 04:43:00,46.0,44.0,-100.00,ENE,66,1.0,5.0,92,0.00,,,0.00,0.000000,,2013-07-26 11:43:00,
2013-07-26 05:02:00,46.0,44.0,-100.00,ENE,66,1.0,5.0,92,0.00,,,0.00,0.000000,,2013-07-26 12:02:00,
2013-07-26 05:33:00,46.0,44.0,-100.00,ENE,64,1.0,4.0,92,0.00,,,0.00,0.000000,,2013-07-26 12:33:00,
2013-07-26 05:43:00,46.0,44.0,-100.00,ENE,64,1.0,4.0,92,0.00,,,0.00,0.000000,,2013-07-26 12:43:00,
2013-07-26 06:43:00,45.0,43.0,-100.00,NE,50,1.0,7.0,93,0.00,,,0.00,2.000000,,2013-07-26 13:43:00,
2013-07-26 06:53:00,45.0,43.0,-100.00,NE,50,1.0,7.0,93,0.00,,,0.00,2.000000,,2013-07-26 13:53:00,
2013-07-26 07:43:00,46.0,43.0,-100.00,NNW,331,1.0,7.0,90,-99.99,,,0.00,18.000000,,2013-07-26 14:43:00,
2013-07-26 08:02:00,46.0,43.0,-100.00,NNW,331,1.0,7.0,90,-99.99,,,0.00,18.000000,,2013-07-26 15:02:00,
2013-07-26 08:43:00,50.0,44.0,-100.00,NE,52,1.0,6.0,80,-99.99,,,-99.99,37.000000,,2013-07-26 15:43:00,
2013-07-26 08:53:00,50.0,44.0,-100.00,NE,52,1.0,6.0,80,-99.99,,,-99.99,37.000000,,2013-07-26 15:53:00,
2013-07-26 09:43:00,66.0,48.0,-100.00,SSE,154,1.0,4.0,52,-99.99,,,0.00,303.000000,,2013-07-26 16:43:00,
2013-07-26 09:54:00,66.0,48.0,-100.00,SSE,154,1.0,4.0,52,-99.99,,,0.00,303.000000,,2013-07-26 16:54:00,
2013-07-26 10:02:00,66.0,48.0,-100.00,SSE,154,1.0,4.0,52,-99.99,,,0.00,303.000000,,2013-07-26 17:02:00,
2013-07-26 10:33:00,78.0,46.0,-100.00,SW,229,2.0,6.0,32,0.00,,,-99.99,845.000000,,2013-07-26 17:33:00,
2013-07-26 10:43:00,78.0,46.0,-100.00,SW,229,2.0,6.0,32,0.00,,,-99.99,845.000000,,2013-07-26 17:43:00,
2013-07-26 10:53:00,78.0,46.0,-100.00,SW,229,2.0,6.0,32,0.00,,,-99.99,845.000000,,2013-07-26 17:53:00,
2013-07-26 11:02:00,78.0,46.0,-100.00,SW,229,2.0,6.0,32,0.00,,,-99.99,845.000000,,2013-07-26 18:02:00,
2013-07-26 11:33:00,80.0,42.0,-100.00,WNW,291,2.0,7.0,26,0.00,,,0.00,1031.000000,,2013-07-26 18:33:00,
2013-07-26 11:44:00,80.0,42.0,-100.00,WNW,291,2.0,7.0,26,0.00,,,0.00,1031.000000,,2013-07-26 18:44:00,
2013-07-26 11:52:00,80.0,42.0,-100.00,WNW,291,2.0,7.0,26,0.00,,,0.00,1031.000000,,2013-07-26 18:52:00,
2013-07-26 12:02:00,80.0,42.0,-100.00,WNW,291,2.0,7.0,26,0.00,,,0.00,1031.000000,,2013-07-26 19:02:00,
2013-07-26 12:43:00,84.0,40.0,-100.00,ESE,123,3.0,11.0,21,0.00,,,0.00,1170.000000,,2013-07-26 19:43:00,
2013-07-26 12:52:00,84.0,40.0,-100.00,ESE,123,3.0,11.0,21,0.00,,,0.00,1170.000000,,2013-07-26 19:52:00,
2013-07-26 13:02:00,84.0,40.0,-100.00,ESE,123,3.0,11.0,21,0.00,,,0.00,1170.000000,,2013-07-26 20:02:00,
2013-07-26 13:32:00,89.0,44.0,-100.00,SSW,197,3.0,12.0,21,0.00,,,0.00,1242.000000,,2013-07-26 20:32:00,
2013-07-26 13:43:00,89.0,44.0,-100.00,SSW,197,3.0,12.0,21,0.00,,,0.00,1242.000000,,2013-07-26 20:43:00,
2013-07-26 13:53:00,89.0,44.0,-100.00,SSW,197,3.0,12.0,21,0.00,,,0.00,1242.000000,,2013-07-26 20:53:00,
2013-07-26 14:01:00,89.0,44.0,-100.00,SSW,197,3.0,12.0,21,0.00,,,0.00,1242.000000,,2013-07-26 21:01:00,
2013-07-26 15:33:00,93.0,45.0,-100.00,East,94,4.0,16.0,19,0.00,,,-99.99,1177.000000,,2013-07-26 22:33:00,
2013-07-26 15:43:00,93.0,45.0,-100.00,East,94,4.0,16.0,19,0.00,,,-99.99,1177.000000,,2013-07-26 22:43:00,
2013-07-26 16:32:00,91.0,43.0,-100.00,NW,318,3.0,13.0,19,-99.99,,,0.00,1051.000000,,2013-07-26 23:32:00,
2013-07-26 16:43:00,91.0,43.0,-100.00,NW,318,3.0,13.0,19,-99.99,,,0.00,1051.000000,,2013-07-26 23:43:00,
2013-07-26 17:32:00,88.0,44.0,-100.00,ENE,60,3.0,13.0,22,-99.99,,,0.00,871.000000,,2013-07-27 00:32:00,
2013-07-26 17:43:00,88.0,44.0,-100.00,ENE,60,3.0,13.0,22,-99.99,,,0.00,871.000000,,2013-07-27 00:43:00,
2013-07-26 18:32:00,84.0,47.0,-100.00,NNW,332,3.0,18.0,28,-99.99,,,-99.99,636.000000,,2013-07-27 01:32:00,
2013-07-26 18:44:00,84.0,47.0,-100.00,NNW,332,3.0,18.0,28,-99.99,,,-99.99,636.000000,,2013-07-27 01:44:00,
2013-07-26 18:53:00,84.0,47.0,-100.00,NNW,332,3.0,18.0,28,-99.99,,,-99.99,636.000000,,2013-07-27 01:53:00,
2013-07-26 19:02:00,84.0,47.0,-100.00,NNW,332,3.0,18.0,28,-99.99,,,-99.99,636.000000,,2013-07-27 02:02:00,
2013-07-26 19:32:00,77.0,49.0,-100.00,SE,131,3.0,14.0,37,0.00,,,-99.99,290.000000,,2013-07-27 02:32:00,
2013-07-26 19:43:00,77.0,49.0,-100.00,SE,131,3.0,14.0,37,0.00,,,-99.99,290.000000,,2013-07-27 02:43:00,
2013-07-26 19:53:00,77.0,49.0,-100.00,SE,131,3.0,14.0,37,0.00,,,-99.99,290.000000,,2013-07-27 02:53:00,
2013-07-26 20:02:00,77.0,49.0,-100.00,SE,131,3.0,14.0,37,0.00,,,-99.99,290.000000,,2013-07-27 03:02:00,
2013-07-26 20:52:00,68.0,49.0,-100.00,SW,223,1.0,9.0,50,0.00,,,-99.99,63.000000,,2013-07-27 03:52:00,
2013-07-26 21:02:00,68.0,49.0,-100.00,SW,223,1.0,9.0,50,0.00,,,-99.99,63.000000,,2013-07-27 04:02:00,
2013-07-26 21:53:00,61.0,48.0,-100.00,North,9,1.0,7.0,63,0.00,,,0.00,5.000000,,2013-07-27 04:53:00,
2013-07-26 22:02:00,61.0,48.0,-100.00,North,9,1.0,7.0,63,0.00,,,0.00,5.000000,,2013-07-27 05:02:00,